sensor_id;sensor_type;location;lat;lon;timestamp;P1;durP1;ratioP1;P2;durP2;ratioP2
28844;SDS011;15976;47.938;7.758;2022-12-24T00:01:02;9.98;;;1.27;;
28844;SDS011;15976;47.938;7.758;2022-12-24T00:03:30;4.68;;;1.38;;
28844;SDS011;15976;47.938;7.758;2022-12-24T00:05:57;5.60;;;1.52;;
28844;SDS011;15976;47.938;7.758;2022-12-24T00:08:24;9.98;;;1.58;;
28844;SDS011;15976;47.938;7.758;2022-12-24T00:10:51;3.08;;;1.13;;
28844;SDS011;15976;47.938;7.758;2022-12-24T00:13:20;9.80;;;1.35;;
28844;SDS011;15976;47.938;7.758;2022-12-24T00:15:47;7.40;;;1.80;;
28844;SDS011;15976;47.938;7.758;2022-12-24T00:18:14;2.92;;;1.20;;
28844;SDS011;15976;47.938;7.758;2022-12-24T00:20:44;5.40;;;1.58;;
28844;SDS011;15976;47.938;7.758;2022-12-24T00:23:14;4.63;;;1.60;;
28844;SDS011;15976;47.938;7.758;2022-12-24T00:25:41;4.50;;;1.30;;
28844;SDS011;15976;47.938;7.758;2022-12-24T00:28:09;4.47;;;1.40;;
28844;SDS011;15976;47.938;7.758;2022-12-24T00:30:37;5.60;;;1.63;;
28844;SDS011;15976;47.938;7.758;2022-12-24T00:33:04;4.30;;;1.30;;
28844;SDS011;15976;47.938;7.758;2022-12-24T00:35:32;1.75;;;1.30;;
28844;SDS011;15976;47.938;7.758;2022-12-24T00:38:00;3.17;;;1.17;;
28844;SDS011;15976;47.938;7.758;2022-12-24T00:40:29;6.50;;;1.40;;
28844;SDS011;15976;47.938;7.758;2022-12-24T00:42:57;4.93;;;1.58;;
28844;SDS011;15976;47.938;7.758;2022-12-24T00:45:24;5.78;;;1.40;;
28844;SDS011;15976;47.938;7.758;2022-12-24T00:47:53;3.53;;;1.50;;
28844;SDS011;15976;47.938;7.758;2022-12-24T00:50:20;4.45;;;1.70;;
28844;SDS011;15976;47.938;7.758;2022-12-24T00:52:47;3.10;;;1.40;;
28844;SDS011;15976;47.938;7.758;2022-12-24T00:55:14;5.68;;;1.60;;
28844;SDS011;15976;47.938;7.758;2022-12-24T00:57:41;3.92;;;1.30;;
28844;SDS011;15976;47.938;7.758;2022-12-24T01:00:08;4.60;;;1.40;;
28844;SDS011;15976;47.938;7.758;2022-12-24T01:02:36;4.82;;;1.42;;
28844;SDS011;15976;47.938;7.758;2022-12-24T01:05:03;4.70;;;1.50;;
28844;SDS011;15976;47.938;7.758;2022-12-24T01:07:37;8.43;;;1.88;;
28844;SDS011;15976;47.938;7.758;2022-12-24T01:10:06;2.45;;;1.30;;
28844;SDS011;15976;47.938;7.758;2022-12-24T01:12:34;4.25;;;1.42;;
28844;SDS011;15976;47.938;7.758;2022-12-24T01:15:01;4.30;;;1.35;;
28844;SDS011;15976;47.938;7.758;2022-12-24T01:17:30;7.78;;;1.38;;
28844;SDS011;15976;47.938;7.758;2022-12-24T01:19:58;4.07;;;1.40;;
28844;SDS011;15976;47.938;7.758;2022-12-24T01:22:25;2.95;;;1.13;;
28844;SDS011;15976;47.938;7.758;2022-12-24T01:24:52;4.93;;;1.50;;
28844;SDS011;15976;47.938;7.758;2022-12-24T01:27:19;5.10;;;1.35;;
28844;SDS011;15976;47.938;7.758;2022-12-24T01:29:46;5.68;;;1.35;;
28844;SDS011;15976;47.938;7.758;2022-12-24T01:32:13;2.97;;;1.40;;
28844;SDS011;15976;47.938;7.758;2022-12-24T01:34:40;3.85;;;1.30;;
28844;SDS011;15976;47.938;7.758;2022-12-24T01:37:07;4.22;;;1.38;;
28844;SDS011;15976;47.938;7.758;2022-12-24T01:39:34;3.40;;;1.20;;
28844;SDS011;15976;47.938;7.758;2022-12-24T01:42:01;5.10;;;1.80;;
28844;SDS011;15976;47.938;7.758;2022-12-24T01:47:25;4.13;;;1.27;;
28844;SDS011;15976;47.938;7.758;2022-12-24T01:52:28;6.85;;;1.60;;
28844;SDS011;15976;47.938;7.758;2022-12-24T01:55:05;4.72;;;1.30;;
28844;SDS011;15976;47.938;7.758;2022-12-24T01:57:37;5.07;;;1.63;;
28844;SDS011;15976;47.938;7.758;2022-12-24T02:00:09;6.95;;;1.77;;
28844;SDS011;15976;47.938;7.758;2022-12-24T02:02:43;7.28;;;1.65;;
28844;SDS011;15976;47.938;7.758;2022-12-24T02:05:24;3.25;;;1.17;;
28844;SDS011;15976;47.938;7.758;2022-12-24T02:08:12;6.35;;;1.40;;
28844;SDS011;15976;47.938;7.758;2022-12-24T02:10:40;3.58;;;1.25;;
28844;SDS011;15976;47.938;7.758;2022-12-24T02:13:07;9.35;;;1.95;;
28844;SDS011;15976;47.938;7.758;2022-12-24T02:15:55;9.75;;;1.80;;
28844;SDS011;15976;47.938;7.758;2022-12-24T02:27:16;9.02;;;1.63;;
28844;SDS011;15976;47.938;7.758;2022-12-24T02:32:22;5.30;;;1.80;;
28844;SDS011;15976;47.938;7.758;2022-12-24T02:35:07;7.85;;;2.28;;
28844;SDS011;15976;47.938;7.758;2022-12-24T02:37:52;10.85;;;1.80;;
28844;SDS011;15976;47.938;7.758;2022-12-24T02:40:25;6.85;;;1.40;;
28844;SDS011;15976;47.938;7.758;2022-12-24T02:42:59;8.45;;;1.92;;
28844;SDS011;15976;47.938;7.758;2022-12-24T02:45:33;8.05;;;2.20;;
28844;SDS011;15976;47.938;7.758;2022-12-24T02:48:02;5.60;;;1.60;;
28844;SDS011;15976;47.938;7.758;2022-12-24T02:50:29;6.72;;;1.77;;
28844;SDS011;15976;47.938;7.758;2022-12-24T02:52:56;8.20;;;1.80;;
28844;SDS011;15976;47.938;7.758;2022-12-24T03:03:59;7.35;;;2.30;;
28844;SDS011;15976;47.938;7.758;2022-12-24T03:11:57;7.97;;;1.98;;
28844;SDS011;15976;47.938;7.758;2022-12-24T03:14:31;4.45;;;1.75;;
28844;SDS011;15976;47.938;7.758;2022-12-24T03:17:00;10.07;;;1.92;;
28844;SDS011;15976;47.938;7.758;2022-12-24T03:19:29;8.73;;;1.60;;
28844;SDS011;15976;47.938;7.758;2022-12-24T03:21:57;6.45;;;1.83;;
28844;SDS011;15976;47.938;7.758;2022-12-24T03:24:26;8.88;;;2.17;;
28844;SDS011;15976;47.938;7.758;2022-12-24T03:26:53;7.28;;;1.73;;
28844;SDS011;15976;47.938;7.758;2022-12-24T03:29:20;6.20;;;2.08;;
28844;SDS011;15976;47.938;7.758;2022-12-24T03:31:48;6.82;;;2.10;;
28844;SDS011;15976;47.938;7.758;2022-12-24T03:34:18;8.82;;;1.40;;
28844;SDS011;15976;47.938;7.758;2022-12-24T03:36:45;8.60;;;2.15;;
28844;SDS011;15976;47.938;7.758;2022-12-24T03:39:13;6.13;;;1.70;;
28844;SDS011;15976;47.938;7.758;2022-12-24T03:41:40;5.65;;;1.70;;
28844;SDS011;15976;47.938;7.758;2022-12-24T03:44:07;7.53;;;1.90;;
28844;SDS011;15976;47.938;7.758;2022-12-24T03:46:34;5.78;;;1.45;;
28844;SDS011;15976;47.938;7.758;2022-12-24T03:49:01;8.27;;;1.75;;
28844;SDS011;15976;47.938;7.758;2022-12-24T03:51:28;8.35;;;2.13;;
28844;SDS011;15976;47.938;7.758;2022-12-24T03:53:55;4.97;;;1.50;;
28844;SDS011;15976;47.938;7.758;2022-12-24T03:56:23;8.40;;;2.10;;
28844;SDS011;15976;47.938;7.758;2022-12-24T03:58:51;9.20;;;2.20;;
28844;SDS011;15976;47.938;7.758;2022-12-24T04:01:18;8.52;;;2.40;;
28844;SDS011;15976;47.938;7.758;2022-12-24T04:03:45;7.47;;;2.15;;
28844;SDS011;15976;47.938;7.758;2022-12-24T04:06:13;11.18;;;2.65;;
28844;SDS011;15976;47.938;7.758;2022-12-24T04:08:43;7.30;;;1.77;;
28844;SDS011;15976;47.938;7.758;2022-12-24T04:11:11;14.88;;;2.25;;
28844;SDS011;15976;47.938;7.758;2022-12-24T04:13:39;7.80;;;2.20;;
28844;SDS011;15976;47.938;7.758;2022-12-24T04:16:07;9.88;;;2.20;;
28844;SDS011;15976;47.938;7.758;2022-12-24T04:18:36;9.32;;;1.98;;
28844;SDS011;15976;47.938;7.758;2022-12-24T04:21:04;9.50;;;2.00;;
28844;SDS011;15976;47.938;7.758;2022-12-24T04:23:33;10.77;;;2.53;;
28844;SDS011;15976;47.938;7.758;2022-12-24T04:26:04;11.02;;;2.42;;
28844;SDS011;15976;47.938;7.758;2022-12-24T04:28:33;11.27;;;2.10;;
28844;SDS011;15976;47.938;7.758;2022-12-24T04:31:02;9.70;;;1.80;;
28844;SDS011;15976;47.938;7.758;2022-12-24T04:33:30;16.05;;;2.05;;
28844;SDS011;15976;47.938;7.758;2022-12-24T04:35:58;8.65;;;2.47;;
28844;SDS011;15976;47.938;7.758;2022-12-24T04:38:27;10.68;;;1.77;;
28844;SDS011;15976;47.938;7.758;2022-12-24T04:41:07;8.25;;;1.80;;
28844;SDS011;15976;47.938;7.758;2022-12-24T04:43:44;12.48;;;2.72;;
28844;SDS011;15976;47.938;7.758;2022-12-24T04:46:13;8.45;;;1.83;;
28844;SDS011;15976;47.938;7.758;2022-12-24T04:48:43;8.95;;;2.08;;
28844;SDS011;15976;47.938;7.758;2022-12-24T04:51:13;12.82;;;2.45;;
28844;SDS011;15976;47.938;7.758;2022-12-24T04:53:41;13.38;;;2.85;;
28844;SDS011;15976;47.938;7.758;2022-12-24T04:56:18;10.27;;;2.28;;
28844;SDS011;15976;47.938;7.758;2022-12-24T04:58:56;9.30;;;2.05;;
28844;SDS011;15976;47.938;7.758;2022-12-24T05:01:29;10.40;;;1.88;;
28844;SDS011;15976;47.938;7.758;2022-12-24T05:03:57;10.57;;;2.13;;
28844;SDS011;15976;47.938;7.758;2022-12-24T05:06:27;10.02;;;2.33;;
28844;SDS011;15976;47.938;7.758;2022-12-24T05:08:56;10.68;;;2.10;;
28844;SDS011;15976;47.938;7.758;2022-12-24T05:11:24;10.98;;;1.98;;
28844;SDS011;15976;47.938;7.758;2022-12-24T05:13:51;11.52;;;2.08;;
28844;SDS011;15976;47.938;7.758;2022-12-24T05:16:19;13.88;;;2.17;;
28844;SDS011;15976;47.938;7.758;2022-12-24T05:18:48;7.85;;;1.73;;
28844;SDS011;15976;47.938;7.758;2022-12-24T05:21:16;12.13;;;2.35;;
28844;SDS011;15976;47.938;7.758;2022-12-24T05:23:47;6.72;;;2.75;;
28844;SDS011;15976;47.938;7.758;2022-12-24T05:26:34;10.27;;;1.88;;
28844;SDS011;15976;47.938;7.758;2022-12-24T05:29:16;11.20;;;2.28;;
28844;SDS011;15976;47.938;7.758;2022-12-24T05:31:43;6.32;;;1.88;;
28844;SDS011;15976;47.938;7.758;2022-12-24T05:34:12;8.65;;;2.05;;
28844;SDS011;15976;47.938;7.758;2022-12-24T05:36:41;9.38;;;2.13;;
28844;SDS011;15976;47.938;7.758;2022-12-24T05:39:15;10.57;;;2.20;;
28844;SDS011;15976;47.938;7.758;2022-12-24T05:41:44;11.73;;;2.70;;
28844;SDS011;15976;47.938;7.758;2022-12-24T05:44:12;9.63;;;1.92;;
28844;SDS011;15976;47.938;7.758;2022-12-24T05:46:40;10.18;;;1.98;;
28844;SDS011;15976;47.938;7.758;2022-12-24T05:49:07;16.08;;;2.63;;
28844;SDS011;15976;47.938;7.758;2022-12-24T05:51:34;13.27;;;2.75;;
28844;SDS011;15976;47.938;7.758;2022-12-24T05:54:01;11.85;;;2.20;;
28844;SDS011;15976;47.938;7.758;2022-12-24T05:56:28;8.18;;;2.05;;
28844;SDS011;15976;47.938;7.758;2022-12-24T05:58:55;6.53;;;2.90;;
28844;SDS011;15976;47.938;7.758;2022-12-24T06:01:23;10.80;;;1.98;;
28844;SDS011;15976;47.938;7.758;2022-12-24T06:03:51;7.85;;;2.80;;
28844;SDS011;15976;47.938;7.758;2022-12-24T06:06:20;11.27;;;2.40;;
28844;SDS011;15976;47.938;7.758;2022-12-24T06:08:49;9.80;;;1.83;;
28844;SDS011;15976;47.938;7.758;2022-12-24T06:11:18;11.40;;;2.25;;
28844;SDS011;15976;47.938;7.758;2022-12-24T06:13:47;9.73;;;2.38;;
28844;SDS011;15976;47.938;7.758;2022-12-24T06:16:15;12.23;;;3.42;;
28844;SDS011;15976;47.938;7.758;2022-12-24T06:18:44;9.80;;;2.03;;
28844;SDS011;15976;47.938;7.758;2022-12-24T06:21:13;11.32;;;2.72;;
28844;SDS011;15976;47.938;7.758;2022-12-24T06:23:41;9.55;;;2.05;;
28844;SDS011;15976;47.938;7.758;2022-12-24T06:26:11;9.70;;;2.70;;
28844;SDS011;15976;47.938;7.758;2022-12-24T06:28:40;14.18;;;2.28;;
28844;SDS011;15976;47.938;7.758;2022-12-24T06:31:09;10.43;;;2.33;;
28844;SDS011;15976;47.938;7.758;2022-12-24T06:33:39;11.70;;;2.00;;
28844;SDS011;15976;47.938;7.758;2022-12-24T06:36:07;9.90;;;2.25;;
28844;SDS011;15976;47.938;7.758;2022-12-24T06:38:42;6.53;;;2.13;;
28844;SDS011;15976;47.938;7.758;2022-12-24T06:41:09;9.15;;;1.88;;
28844;SDS011;15976;47.938;7.758;2022-12-24T06:43:36;14.38;;;2.92;;
28844;SDS011;15976;47.938;7.758;2022-12-24T06:46:03;4.85;;;1.50;;
28844;SDS011;15976;47.938;7.758;2022-12-24T06:48:30;8.52;;;1.95;;
28844;SDS011;15976;47.938;7.758;2022-12-24T06:50:57;11.35;;;1.80;;
28844;SDS011;15976;47.938;7.758;2022-12-24T06:53:28;15.50;;;3.28;;
28844;SDS011;15976;47.938;7.758;2022-12-24T06:56:03;7.25;;;1.90;;
28844;SDS011;15976;47.938;7.758;2022-12-24T06:58:31;15.73;;;2.38;;
28844;SDS011;15976;47.938;7.758;2022-12-24T07:01:02;10.95;;;1.92;;
28844;SDS011;15976;47.938;7.758;2022-12-24T07:03:32;7.22;;;2.15;;
28844;SDS011;15976;47.938;7.758;2022-12-24T07:06:00;10.60;;;1.92;;
28844;SDS011;15976;47.938;7.758;2022-12-24T07:08:27;6.88;;;2.00;;
28844;SDS011;15976;47.938;7.758;2022-12-24T07:10:54;6.97;;;1.92;;
28844;SDS011;15976;47.938;7.758;2022-12-24T07:13:21;8.32;;;2.33;;
28844;SDS011;15976;47.938;7.758;2022-12-24T07:15:55;9.23;;;2.42;;
28844;SDS011;15976;47.938;7.758;2022-12-24T07:18:24;7.00;;;2.10;;
28844;SDS011;15976;47.938;7.758;2022-12-24T07:20:50;5.90;;;1.90;;
28844;SDS011;15976;47.938;7.758;2022-12-24T07:23:17;9.30;;;2.13;;
28844;SDS011;15976;47.938;7.758;2022-12-24T07:25:44;10.20;;;2.00;;
28844;SDS011;15976;47.938;7.758;2022-12-24T07:28:11;9.05;;;2.38;;
28844;SDS011;15976;47.938;7.758;2022-12-24T07:30:38;5.00;;;2.00;;
28844;SDS011;15976;47.938;7.758;2022-12-24T07:33:05;8.70;;;2.25;;
28844;SDS011;15976;47.938;7.758;2022-12-24T07:35:33;14.60;;;2.58;;
28844;SDS011;15976;47.938;7.758;2022-12-24T07:38:00;10.05;;;1.83;;
28844;SDS011;15976;47.938;7.758;2022-12-24T07:40:28;11.15;;;2.15;;
28844;SDS011;15976;47.938;7.758;2022-12-24T07:42:55;11.85;;;2.33;;
28844;SDS011;15976;47.938;7.758;2022-12-24T07:45:22;13.10;;;3.13;;
28844;SDS011;15976;47.938;7.758;2022-12-24T07:47:49;8.30;;;1.95;;
28844;SDS011;15976;47.938;7.758;2022-12-24T07:50:16;14.10;;;3.08;;
28844;SDS011;15976;47.938;7.758;2022-12-24T07:52:43;14.15;;;2.38;;
28844;SDS011;15976;47.938;7.758;2022-12-24T07:55:10;10.05;;;2.40;;
28844;SDS011;15976;47.938;7.758;2022-12-24T07:57:37;12.07;;;3.72;;
28844;SDS011;15976;47.938;7.758;2022-12-24T08:00:04;9.13;;;2.50;;
28844;SDS011;15976;47.938;7.758;2022-12-24T08:02:37;8.23;;;2.47;;
28844;SDS011;15976;47.938;7.758;2022-12-24T08:05:04;13.75;;;3.03;;
28844;SDS011;15976;47.938;7.758;2022-12-24T08:07:32;8.68;;;3.40;;
28844;SDS011;15976;47.938;7.758;2022-12-24T08:09:59;13.45;;;2.78;;
28844;SDS011;15976;47.938;7.758;2022-12-24T08:12:26;13.50;;;3.13;;
28844;SDS011;15976;47.938;7.758;2022-12-24T08:14:53;12.13;;;2.70;;
28844;SDS011;15976;47.938;7.758;2022-12-24T08:17:20;7.57;;;2.30;;
28844;SDS011;15976;47.938;7.758;2022-12-24T08:19:53;12.50;;;2.83;;
28844;SDS011;15976;47.938;7.758;2022-12-24T08:22:20;11.80;;;2.38;;
28844;SDS011;15976;47.938;7.758;2022-12-24T08:24:47;11.45;;;2.60;;
28844;SDS011;15976;47.938;7.758;2022-12-24T08:27:14;13.27;;;2.58;;
28844;SDS011;15976;47.938;7.758;2022-12-24T08:29:41;14.07;;;2.75;;
28844;SDS011;15976;47.938;7.758;2022-12-24T08:32:08;9.77;;;2.05;;
28844;SDS011;15976;47.938;7.758;2022-12-24T08:34:35;8.85;;;2.22;;
28844;SDS011;15976;47.938;7.758;2022-12-24T08:37:02;11.10;;;2.53;;
28844;SDS011;15976;47.938;7.758;2022-12-24T08:39:29;12.13;;;2.03;;
28844;SDS011;15976;47.938;7.758;2022-12-24T08:41:56;13.57;;;3.05;;
28844;SDS011;15976;47.938;7.758;2022-12-24T08:44:23;9.27;;;2.10;;
28844;SDS011;15976;47.938;7.758;2022-12-24T08:46:50;11.88;;;2.25;;
28844;SDS011;15976;47.938;7.758;2022-12-24T08:49:17;11.95;;;2.10;;
28844;SDS011;15976;47.938;7.758;2022-12-24T08:51:44;7.93;;;2.28;;
28844;SDS011;15976;47.938;7.758;2022-12-24T08:54:11;7.63;;;2.38;;
28844;SDS011;15976;47.938;7.758;2022-12-24T08:56:38;6.18;;;2.30;;
28844;SDS011;15976;47.938;7.758;2022-12-24T08:59:05;12.05;;;2.30;;
28844;SDS011;15976;47.938;7.758;2022-12-24T09:01:32;10.20;;;2.55;;
28844;SDS011;15976;47.938;7.758;2022-12-24T09:04:00;8.35;;;2.47;;
28844;SDS011;15976;47.938;7.758;2022-12-24T09:06:27;10.55;;;3.33;;
28844;SDS011;15976;47.938;7.758;2022-12-24T09:08:54;7.50;;;2.25;;
28844;SDS011;15976;47.938;7.758;2022-12-24T09:11:22;6.15;;;1.92;;
28844;SDS011;15976;47.938;7.758;2022-12-24T09:13:50;5.90;;;1.95;;
28844;SDS011;15976;47.938;7.758;2022-12-24T09:16:17;9.38;;;2.03;;
28844;SDS011;15976;47.938;7.758;2022-12-24T09:18:44;9.13;;;2.50;;
28844;SDS011;15976;47.938;7.758;2022-12-24T09:21:12;10.23;;;2.03;;
28844;SDS011;15976;47.938;7.758;2022-12-24T09:23:41;5.93;;;1.90;;
28844;SDS011;15976;47.938;7.758;2022-12-24T09:26:13;8.45;;;2.30;;
28844;SDS011;15976;47.938;7.758;2022-12-24T09:28:41;10.85;;;1.98;;
28844;SDS011;15976;47.938;7.758;2022-12-24T09:31:09;8.05;;;2.20;;
28844;SDS011;15976;47.938;7.758;2022-12-24T09:33:38;6.93;;;2.00;;
28844;SDS011;15976;47.938;7.758;2022-12-24T09:36:06;5.70;;;1.85;;
28844;SDS011;15976;47.938;7.758;2022-12-24T09:38:34;6.22;;;1.55;;
28844;SDS011;15976;47.938;7.758;2022-12-24T09:41:09;7.00;;;1.35;;
28844;SDS011;15976;47.938;7.758;2022-12-24T09:43:38;4.40;;;1.30;;
28844;SDS011;15976;47.938;7.758;2022-12-24T09:48:44;3.67;;;1.38;;
28844;SDS011;15976;47.938;7.758;2022-12-24T09:54:06;3.60;;;1.88;;
28844;SDS011;15976;47.938;7.758;2022-12-24T09:56:50;4.18;;;1.20;;
28844;SDS011;15976;47.938;7.758;2022-12-24T09:59:20;7.05;;;1.60;;
28844;SDS011;15976;47.938;7.758;2022-12-24T10:01:49;4.55;;;1.48;;
28844;SDS011;15976;47.938;7.758;2022-12-24T10:04:27;4.50;;;1.40;;
28844;SDS011;15976;47.938;7.758;2022-12-24T10:07:22;3.10;;;1.50;;
28844;SDS011;15976;47.938;7.758;2022-12-24T10:18:11;8.65;;;1.20;;
28844;SDS011;15976;47.938;7.758;2022-12-24T10:23:51;4.47;;;1.10;;
28844;SDS011;15976;47.938;7.758;2022-12-24T10:26:26;1.73;;;0.88;;
28844;SDS011;15976;47.938;7.758;2022-12-24T10:29:17;2.60;;;1.10;;
28844;SDS011;15976;47.938;7.758;2022-12-24T10:31:55;2.35;;;1.10;;
28844;SDS011;15976;47.938;7.758;2022-12-24T10:34:45;3.78;;;1.13;;
28844;SDS011;15976;47.938;7.758;2022-12-24T10:37:26;4.47;;;1.00;;
28844;SDS011;15976;47.938;7.758;2022-12-24T10:39:54;1.63;;;1.02;;
28844;SDS011;15976;47.938;7.758;2022-12-24T10:42:25;3.65;;;0.90;;
28844;SDS011;15976;47.938;7.758;2022-12-24T10:45:15;5.00;;;1.00;;
28844;SDS011;15976;47.938;7.758;2022-12-24T10:47:47;7.68;;;1.58;;
28844;SDS011;15976;47.938;7.758;2022-12-24T10:50:22;6.43;;;1.88;;
28844;SDS011;15976;47.938;7.758;2022-12-24T10:53:12;5.32;;;1.33;;
28844;SDS011;15976;47.938;7.758;2022-12-24T10:55:46;3.92;;;2.05;;
28844;SDS011;15976;47.938;7.758;2022-12-24T10:58:15;2.65;;;1.17;;
28844;SDS011;15976;47.938;7.758;2022-12-24T11:00:52;4.28;;;2.10;;
28844;SDS011;15976;47.938;7.758;2022-12-24T11:05:59;3.08;;;1.20;;
28844;SDS011;15976;47.938;7.758;2022-12-24T11:08:27;3.80;;;1.27;;
28844;SDS011;15976;47.938;7.758;2022-12-24T11:10:56;2.80;;;1.20;;
28844;SDS011;15976;47.938;7.758;2022-12-24T11:13:31;2.38;;;1.10;;
28844;SDS011;15976;47.938;7.758;2022-12-24T11:16:09;2.92;;;1.30;;
28844;SDS011;15976;47.938;7.758;2022-12-24T11:18:53;2.95;;;1.27;;
28844;SDS011;15976;47.938;7.758;2022-12-24T11:24:23;1.92;;;1.20;;
28844;SDS011;15976;47.938;7.758;2022-12-24T11:26:54;3.92;;;1.20;;
28844;SDS011;15976;47.938;7.758;2022-12-24T11:29:43;2.67;;;1.00;;
28844;SDS011;15976;47.938;7.758;2022-12-24T11:32:17;1.63;;;1.05;;
28844;SDS011;15976;47.938;7.758;2022-12-24T11:34:46;3.45;;;1.52;;
28844;SDS011;15976;47.938;7.758;2022-12-24T11:37:18;2.97;;;1.15;;
28844;SDS011;15976;47.938;7.758;2022-12-24T11:39:50;3.50;;;0.95;;
28844;SDS011;15976;47.938;7.758;2022-12-24T11:42:22;5.45;;;2.10;;
28844;SDS011;15976;47.938;7.758;2022-12-24T11:44:50;1.30;;;0.90;;
28844;SDS011;15976;47.938;7.758;2022-12-24T11:47:30;7.72;;;4.65;;
28844;SDS011;15976;47.938;7.758;2022-12-24T11:50:22;3.85;;;2.20;;
28844;SDS011;15976;47.938;7.758;2022-12-24T12:01:16;3.10;;;1.10;;
28844;SDS011;15976;47.938;7.758;2022-12-24T12:04:02;2.72;;;1.20;;
28844;SDS011;15976;47.938;7.758;2022-12-24T12:06:38;2.67;;;0.90;;
28844;SDS011;15976;47.938;7.758;2022-12-24T12:09:28;2.03;;;1.05;;
28844;SDS011;15976;47.938;7.758;2022-12-24T12:12:00;2.38;;;1.30;;
28844;SDS011;15976;47.938;7.758;2022-12-24T12:14:34;3.35;;;1.10;;
28844;SDS011;15976;47.938;7.758;2022-12-24T12:19:56;4.88;;;1.90;;
28844;SDS011;15976;47.938;7.758;2022-12-24T12:22:31;4.28;;;1.90;;
28844;SDS011;15976;47.938;7.758;2022-12-24T12:25:22;4.90;;;1.60;;
28844;SDS011;15976;47.938;7.758;2022-12-24T12:27:56;2.95;;;1.50;;
28844;SDS011;15976;47.938;7.758;2022-12-24T12:30:25;2.92;;;1.60;;
28844;SDS011;15976;47.938;7.758;2022-12-24T12:35:52;7.35;;;1.88;;
28844;SDS011;15976;47.938;7.758;2022-12-24T12:38:22;2.95;;;1.20;;
28844;SDS011;15976;47.938;7.758;2022-12-24T12:45:58;3.67;;;1.48;;
28844;SDS011;15976;47.938;7.758;2022-12-24T12:57:05;4.60;;;1.75;;
28844;SDS011;15976;47.938;7.758;2022-12-24T12:59:41;6.65;;;1.70;;
28844;SDS011;15976;47.938;7.758;2022-12-24T13:26:40;4.63;;;1.80;;
28844;SDS011;15976;47.938;7.758;2022-12-24T13:40:38;7.18;;;2.60;;
28844;SDS011;15976;47.938;7.758;2022-12-24T13:50:49;8.45;;;2.97;;
28844;SDS011;15976;47.938;7.758;2022-12-24T13:55:51;13.77;;;4.97;;
28844;SDS011;15976;47.938;7.758;2022-12-24T13:58:39;10.38;;;3.63;;
28844;SDS011;15976;47.938;7.758;2022-12-24T14:01:09;12.80;;;4.38;;
28844;SDS011;15976;47.938;7.758;2022-12-24T14:03:41;12.02;;;3.97;;
28844;SDS011;15976;47.938;7.758;2022-12-24T14:08:46;3.13;;;1.30;;
28844;SDS011;15976;47.938;7.758;2022-12-24T14:11:16;6.60;;;1.80;;
28844;SDS011;15976;47.938;7.758;2022-12-24T14:24:22;7.38;;;1.83;;
28844;SDS011;15976;47.938;7.758;2022-12-24T14:26:54;4.28;;;1.70;;
28844;SDS011;15976;47.938;7.758;2022-12-24T14:29:31;5.47;;;2.10;;
28844;SDS011;15976;47.938;7.758;2022-12-24T14:32:07;5.45;;;1.80;;
28844;SDS011;15976;47.938;7.758;2022-12-24T14:34:40;3.97;;;1.80;;
28844;SDS011;15976;47.938;7.758;2022-12-24T14:37:08;4.82;;;1.77;;
28844;SDS011;15976;47.938;7.758;2022-12-24T14:39:39;5.13;;;1.73;;
28844;SDS011;15976;47.938;7.758;2022-12-24T14:45:17;4.40;;;1.80;;
28844;SDS011;15976;47.938;7.758;2022-12-24T14:50:49;2.83;;;1.48;;
28844;SDS011;15976;47.938;7.758;2022-12-24T14:53:25;4.90;;;2.17;;
28844;SDS011;15976;47.938;7.758;2022-12-24T14:56:15;5.25;;;1.98;;
28844;SDS011;15976;47.938;7.758;2022-12-24T15:01:22;8.82;;;2.08;;
28844;SDS011;15976;47.938;7.758;2022-12-24T15:06:49;4.53;;;1.55;;
28844;SDS011;15976;47.938;7.758;2022-12-24T15:09:23;4.40;;;1.40;;
28844;SDS011;15976;47.938;7.758;2022-12-24T15:11:53;7.25;;;2.78;;
28844;SDS011;15976;47.938;7.758;2022-12-24T15:14:23;5.35;;;1.55;;
28844;SDS011;15976;47.938;7.758;2022-12-24T15:19:25;9.25;;;2.95;;
28844;SDS011;15976;47.938;7.758;2022-12-24T15:21:53;7.95;;;3.05;;
28844;SDS011;15976;47.938;7.758;2022-12-24T15:24:31;6.35;;;2.72;;
28844;SDS011;15976;47.938;7.758;2022-12-24T15:27:01;11.75;;;4.30;;
28844;SDS011;15976;47.938;7.758;2022-12-24T15:29:41;10.90;;;3.35;;
28844;SDS011;15976;47.938;7.758;2022-12-24T15:32:10;6.80;;;2.40;;
28844;SDS011;15976;47.938;7.758;2022-12-24T15:34:41;10.25;;;2.72;;
28844;SDS011;15976;47.938;7.758;2022-12-24T15:39:36;7.43;;;2.33;;
28844;SDS011;15976;47.938;7.758;2022-12-24T15:42:06;4.43;;;2.00;;
28844;SDS011;15976;47.938;7.758;2022-12-24T15:44:40;5.68;;;2.30;;
28844;SDS011;15976;47.938;7.758;2022-12-24T15:47:30;8.27;;;3.22;;
28844;SDS011;15976;47.938;7.758;2022-12-24T15:52:47;11.30;;;3.67;;
28844;SDS011;15976;47.938;7.758;2022-12-24T15:55:45;9.25;;;4.10;;
28844;SDS011;15976;47.938;7.758;2022-12-24T15:58:25;20.05;;;9.30;;
28844;SDS011;15976;47.938;7.758;2022-12-24T16:06:16;14.68;;;5.65;;
28844;SDS011;15976;47.938;7.758;2022-12-24T16:08:43;10.82;;;6.05;;
28844;SDS011;15976;47.938;7.758;2022-12-24T16:16:20;8.27;;;3.55;;
28844;SDS011;15976;47.938;7.758;2022-12-24T16:18:56;8.65;;;3.17;;
28844;SDS011;15976;47.938;7.758;2022-12-24T16:21:40;12.40;;;7.88;;
28844;SDS011;15976;47.938;7.758;2022-12-24T16:26:38;11.00;;;5.40;;
28844;SDS011;15976;47.938;7.758;2022-12-24T16:29:06;9.10;;;4.45;;
28844;SDS011;15976;47.938;7.758;2022-12-24T16:31:36;10.57;;;5.30;;
28844;SDS011;15976;47.938;7.758;2022-12-24T16:34:11;9.88;;;4.07;;
28844;SDS011;15976;47.938;7.758;2022-12-24T16:36:43;10.55;;;4.20;;
28844;SDS011;15976;47.938;7.758;2022-12-24T16:42:08;10.05;;;3.30;;
28844;SDS011;15976;47.938;7.758;2022-12-24T16:44:54;8.50;;;4.00;;
28844;SDS011;15976;47.938;7.758;2022-12-24T16:47:23;10.90;;;3.67;;
28844;SDS011;15976;47.938;7.758;2022-12-24T16:49:56;7.40;;;3.75;;
28844;SDS011;15976;47.938;7.758;2022-12-24T16:52:24;7.72;;;4.22;;
28844;SDS011;15976;47.938;7.758;2022-12-24T16:54:54;5.05;;;2.45;;
28844;SDS011;15976;47.938;7.758;2022-12-24T16:57:22;4.07;;;2.00;;
28844;SDS011;15976;47.938;7.758;2022-12-24T16:59:50;3.70;;;2.05;;
28844;SDS011;15976;47.938;7.758;2022-12-24T17:02:19;4.72;;;2.80;;
28844;SDS011;15976;47.938;7.758;2022-12-24T17:04:48;5.05;;;2.38;;
28844;SDS011;15976;47.938;7.758;2022-12-24T17:07:16;5.70;;;2.50;;
28844;SDS011;15976;47.938;7.758;2022-12-24T17:09:44;12.10;;;4.40;;
28844;SDS011;15976;47.938;7.758;2022-12-24T17:12:11;7.97;;;4.05;;
28844;SDS011;15976;47.938;7.758;2022-12-24T17:14:39;10.23;;;4.78;;
28844;SDS011;15976;47.938;7.758;2022-12-24T17:17:16;7.82;;;3.25;;
28844;SDS011;15976;47.938;7.758;2022-12-24T17:19:48;3.92;;;2.53;;
28844;SDS011;15976;47.938;7.758;2022-12-24T17:22:15;7.82;;;3.42;;
28844;SDS011;15976;47.938;7.758;2022-12-24T17:24:42;6.25;;;3.10;;
28844;SDS011;15976;47.938;7.758;2022-12-24T17:27:09;5.00;;;2.83;;
28844;SDS011;15976;47.938;7.758;2022-12-24T17:29:36;7.03;;;4.13;;
28844;SDS011;15976;47.938;7.758;2022-12-24T17:32:03;6.97;;;4.35;;
28844;SDS011;15976;47.938;7.758;2022-12-24T17:34:30;6.88;;;3.97;;
28844;SDS011;15976;47.938;7.758;2022-12-24T17:36:57;6.22;;;3.20;;
28844;SDS011;15976;47.938;7.758;2022-12-24T17:39:24;5.90;;;2.70;;
28844;SDS011;15976;47.938;7.758;2022-12-24T17:41:53;5.65;;;2.85;;
28844;SDS011;15976;47.938;7.758;2022-12-24T17:44:20;4.40;;;2.33;;
28844;SDS011;15976;47.938;7.758;2022-12-24T17:46:47;3.45;;;2.20;;
28844;SDS011;15976;47.938;7.758;2022-12-24T17:49:14;3.67;;;2.50;;
28844;SDS011;15976;47.938;7.758;2022-12-24T17:51:41;8.38;;;4.20;;
28844;SDS011;15976;47.938;7.758;2022-12-24T17:54:11;7.82;;;3.90;;
28844;SDS011;15976;47.938;7.758;2022-12-24T17:56:38;8.68;;;3.55;;
28844;SDS011;15976;47.938;7.758;2022-12-24T17:59:06;19.25;;;8.27;;